Terminal Aerodrome Forecast
Issued by NWS Charleston, WV

Current Version | Previous Version | Graphics & Text | Print | Product List | Glossary On
Versions: 1 2 3 4 5 6 7 8 9 10 11 12 13 14 15 16 17 18 19 20 21 22
060
FTUS41 KRLX 020530
TAFCRW
TAF
KCRW 020530Z 0206/0306 26004KT P6SM OVC040
     FM021000 VRB03KT P6SM OVC030
     FM021500 25007G16KT P6SM BKN025
     FM022300 27006KT P6SM BKN035=

USA.gov is the U.S. government's official web portal to all federal, state and local government web resources and services.